Time;durP1;ratioP1;P1;durP2;ratioP2;P2;SDS_P1;SDS_P2;PMS_P1;PMS_P2;Temp;Humidity;BMP_temperature;BMP_pressure;BME280_temperature;BME280_humidity;BME280_pressure;Samples;Min_cycle;Max_cycle;Signal;HPM_P1;HPM_P2
2022/01/15 00:02:14;;;;;;;;;73.00;55.50;;;;;7.00;63.92;102414.59;5037110;28;45731;-60
2022/01/15 00:04:40;;;;;;;;;76.75;60.25;;;;;7.01;63.62;102419.00;5050928;28;45532;-62
2022/01/15 00:07:06;;;;;;;;;76.00;59.25;;;;;7.00;64.03;102404.00;5058029;28;46272;-60
2022/01/15 00:09:31;;;;;;;;;73.25;57.75;;;;;6.98;63.42;102403.16;5039852;28;45433;-65
2022/01/15 00:11:56;;;;;;;;;76.50;60.00;;;;;7.02;63.75;102411.03;5058153;28;45805;-67
2022/01/15 00:14:35;;;;;;;;;83.00;62.75;;;;;7.02;63.97;102411.03;5059416;28;45790;-64
2022/01/15 00:17:08;;;;;;;;;79.00;62.00;;;;;6.97;63.98;102402.28;5058437;28;45474;-65
2022/01/15 00:19:41;;;;;;;;;77.00;54.50;;;;;6.98;63.67;102414.63;5040731;28;45347;-62
2022/01/15 00:22:18;;;;;;;;;74.75;55.50;;;;;6.96;64.30;102400.53;5057851;28;45458;-66
2022/01/15 00:24:45;;;;;;;;;79.50;63.00;;;;;6.96;63.93;102405.81;5040775;28;45368;-67
2022/01/15 00:27:12;;;;;;;;;105.00;96.00;;;;;6.94;64.85;102409.41;5023148;28;45492;-63
2022/01/15 00:29:38;;;;;;;;;105.67;91.67;;;;;6.90;65.24;102405.00;5038493;28;45493;-60
2022/01/15 00:32:06;;;;;;;;;110.00;87.00;;;;;6.85;65.72;102399.78;5048612;28;45331;-65
2022/01/15 00:34:32;;;;;;;;;94.67;74.67;;;;;6.81;65.02;102398.09;5049625;28;45328;-68
2022/01/15 00:36:58;;;;;;;;;70.25;58.50;;;;;6.84;63.56;102395.41;5058393;28;46114;-62
2022/01/15 00:39:25;;;;;;;;;82.25;57.75;;;;;6.80;63.41;102393.69;5058236;28;45403;-59
2022/01/15 00:41:52;;;;;;;;;73.25;58.00;;;;;6.77;63.83;102378.75;5058221;28;45305;-65
2022/01/15 00:44:18;;;;;;;;;80.75;64.25;;;;;6.83;64.15;102393.66;5058596;28;45653;-62
2022/01/15 00:46:43;;;;;;;;;81.25;64.00;;;;;6.82;64.32;102383.97;5057976;28;45395;-60
2022/01/15 00:49:09;;;;;;;;;86.00;64.25;;;;;6.86;64.55;102385.66;5039730;28;45564;-58
2022/01/15 00:51:35;;;;;;;;;82.50;65.25;;;;;6.84;63.78;102383.94;5040019;28;45559;-60
2022/01/15 00:54:00;;;;;;;;;87.75;65.50;;;;;6.82;64.07;102370.75;5040456;28;45372;-61
2022/01/15 00:56:26;;;;;;;;;89.75;67.75;;;;;6.86;63.99;102383.03;5057886;28;45477;-59
2022/01/15 00:58:52;;;;;;;;;86.50;64.75;;;;;6.86;64.30;102383.03;5058307;28;45393;-65
2022/01/15 01:01:20;;;;;;;;;82.50;65.25;;;;;6.85;64.81;102378.63;5045762;28;45384;-61
2022/01/15 01:03:46;;;;;;;;;85.25;64.50;;;;;6.84;64.21;102379.53;5057855;28;45308;-63
2022/01/15 01:06:12;;;;;;;;;100.00;88.00;;;;;6.81;64.94;102374.28;5057778;28;46203;-62
2022/01/15 01:08:37;;;;;;;;;109.33;94.00;;;;;6.73;66.51;102370.84;5057542;28;45308;-63
2022/01/15 01:11:10;;;;;;;;;107.00;98.33;;;;;6.59;66.77;102370.13;5038819;28;45343;-61
2022/01/15 01:20:01;;;;;;;;;117.67;104.33;;;;;6.50;67.66;102374.59;5057962;28;45554;-61
2022/01/15 01:22:42;;;;;;;;;107.00;91.00;;;;;6.32;67.38;102358.09;5057473;28;45268;-67
2022/01/15 01:24:40;;;;;;;;;118.67;105.33;;;;;6.30;68.28;102359.88;5058019;28;45382;-61
2022/01/15 01:27:29;;;;;;;;;126.33;107.33;;;;;6.28;67.94;102353.72;5056736;28;46147;-64
2022/01/15 01:30:20;;;;;;;;;113.33;97.67;;;;;6.20;67.98;102344.09;5057492;28;45451;-63
2022/01/15 01:32:52;;;;;;;;;112.00;97.00;;;;;6.19;68.27;102345.00;5057169;28;45526;-58
2022/01/15 01:35:32;;;;;;;;;108.33;89.33;;;;;6.19;68.00;102334.44;5058023;28;45398;-62
2022/01/15 01:38:06;;;;;;;;;108.33;101.33;;;;;6.17;68.60;102330.06;5038897;28;45497;-60
2022/01/15 01:40:39;;;;;;;;;120.33;99.00;;;;;6.22;68.25;102342.31;5057381;28;45450;-60
2022/01/15 01:43:38;;;;;;;;;114.33;93.33;;;;;6.16;68.90;102337.09;5057677;28;45575;-62
2022/01/15 01:46:45;;;;;;;;;108.00;92.00;;;;;6.14;69.03;102353.88;5057810;28;45413;-62
2022/01/15 01:48:39;;;;;;;;;110.33;95.33;;;;;6.12;68.18;102350.34;5024587;28;45367;-60
2022/01/15 01:51:07;;;;;;;;;117.33;106.33;;;;;6.09;69.16;102347.75;5038381;28;45474;-67
2022/01/15 01:53:34;;;;;;;;;105.67;95.00;;;;;6.07;69.34;102336.31;5035204;28;45442;-61
2022/01/15 01:56:00;;;;;;;;;105.33;84.67;;;;;6.06;69.39;102343.38;5037671;28;45616;-67
2022/01/15 01:58:26;;;;;;;;;104.67;85.67;;;;;6.06;68.71;102339.84;5028133;28;45424;-63
2022/01/15 02:00:51;;;;;;;;;108.00;91.00;;;;;6.08;68.96;102343.34;5057532;28;45411;-65
2022/01/15 02:03:16;;;;;;;;;107.33;87.33;;;;;6.06;69.27;102335.44;5039350;28;45371;-69
2022/01/15 02:05:42;;;;;;;;;104.33;84.67;;;;;6.01;69.79;102324.06;5056857;28;45414;-67
2022/01/15 02:08:07;;;;;;;;;112.33;91.67;;;;;5.93;69.66;102315.31;5038453;28;47723;-65
2022/01/15 02:10:34;;;;;;;;;102.33;88.33;;;;;5.91;69.82;102312.69;5056665;28;45455;-65
2022/01/15 02:13:01;;;;;;;;;109.33;94.00;;;;;6.00;68.97;102324.06;5038676;28;45343;-63
2022/01/15 02:15:27;;;;;;;;;108.67;91.67;;;;;5.96;69.12;102319.69;5057125;28;45371;-62
2022/01/15 02:17:54;;;;;;;;;108.00;96.00;;;;;5.87;69.91;102308.31;5038502;28;46123;-62
2022/01/15 02:25:43;;;;;;;;;106.00;88.33;;;;;5.75;69.62;102312.81;5057139;28;45465;-66
2022/01/15 02:28:09;;;;;;;;;110.33;97.00;;;;;5.65;70.67;102317.28;5055319;28;46230;-67
2022/01/15 02:30:34;;;;;;;;;106.33;86.67;;;;;5.69;70.23;102315.50;5056574;28;45398;-66
2022/01/15 02:33:00;;;;;;;;;104.00;86.67;;;;;5.70;69.62;102319.88;5055523;28;45484;-64
2022/01/15 02:35:25;;;;;;;;;105.00;89.00;;;;;5.71;70.09;102319.88;5057121;28;45409;-67
2022/01/15 02:37:51;;;;;;;;;109.00;98.67;;;;;5.62;69.58;102306.78;5056145;28;45498;-66
2022/01/15 02:40:16;;;;;;;;;109.33;98.67;;;;;5.59;69.76;102314.69;5056795;28;45460;-67
2022/01/15 02:42:42;;;;;;;;;112.00;100.33;;;;;5.57;69.92;102298.88;5056114;28;45201;-60
2022/01/15 02:45:08;;;;;;;;;113.33;101.33;;;;;5.45;70.28;102279.63;5056975;28;45241;-59
2022/01/15 02:50:21;;;;;;;;;111.33;96.33;;;;;5.50;69.92;102291.03;5056616;28;45371;-66
2022/01/15 02:52:47;;;;;;;;;129.33;110.67;;;;;5.49;70.06;102305.13;5056416;28;45518;-62
2022/01/15 02:55:13;;;;;;;;;115.33;103.00;;;;;5.38;69.44;102292.00;5056360;28;45466;-67
2022/01/15 02:57:38;;;;;;;;;127.67;107.67;;;;;5.40;70.22;102292.84;5055992;28;45508;-62
2022/01/15 03:00:05;;;;;;;;;121.67;102.33;;;;;5.41;70.29;102293.72;5056459;28;45432;-65
2022/01/15 03:02:33;;;;;;;;;124.67;104.00;;;;;5.39;69.82;102290.25;5055237;28;45649;-61
2022/01/15 03:04:58;;;;;;;;;119.00;105.00;;;;;5.27;70.33;102278.88;5056009;28;45462;-65
2022/01/15 03:07:24;;;;;;;;;114.33;103.33;;;;;5.28;70.84;102287.66;5055566;28;46122;-65
2022/01/15 03:09:49;;;;;;;;;122.00;105.33;;;;;5.25;70.03;102285.94;5037764;28;45359;-67
2022/01/15 03:12:15;;;;;;;;;110.33;96.67;;;;;5.23;69.93;102282.44;5055714;28;45385;-68
2022/01/15 03:14:42;;;;;;;;;118.67;105.67;;;;;5.23;70.22;102286.84;5056412;28;45549;-67
2022/01/15 03:17:08;;;;;;;;;114.00;103.00;;;;;5.13;70.89;102283.38;5056036;28;45476;-64
2022/01/15 03:19:33;;;;;;;;;127.00;104.00;;;;;5.12;71.34;102279.00;5056188;28;45665;-66
2022/01/15 03:21:58;;;;;;;;;116.67;95.67;;;;;4.95;71.34;102257.16;5056319;28;45561;-65
2022/01/15 03:24:24;;;;;;;;;119.33;100.67;;;;;5.01;70.88;102280.81;5056533;28;45509;-64
2022/01/15 03:26:49;;;;;;;;;116.33;102.67;;;;;5.04;71.41;102286.06;5037459;28;46180;-64
2022/01/15 03:29:14;;;;;;;;;129.33;108.00;;;;;4.93;71.45;102282.63;5055648;28;45514;-67
2022/01/15 03:31:40;;;;;;;;;118.00;105.00;;;;;4.92;71.48;102276.47;5054797;28;45529;-66
2022/01/15 03:34:05;;;;;;;;;116.33;102.33;;;;;4.87;71.62;102266.84;5055963;28;45574;-59
2022/01/15 03:36:31;;;;;;;;;108.67;93.33;;;;;4.86;72.20;102265.09;5055939;28;45453;-64
2022/01/15 03:38:56;;;;;;;;;111.67;96.67;;;;;4.88;71.61;102258.06;5054522;28;45318;-64
2022/01/15 03:41:21;;;;;;;;;111.33;94.67;;;;;4.86;71.50;102260.69;5055968;28;45371;-63
2022/01/15 03:43:47;;;;;;;;;110.00;91.67;;;;;4.80;71.84;102258.09;5056066;28;45241;-63
2022/01/15 03:46:13;;;;;;;;;112.00;100.33;;;;;4.73;72.55;102254.63;5055560;28;45485;-61
2022/01/15 03:48:38;;;;;;;;;116.33;102.00;;;;;4.73;72.82;102254.63;5036391;28;45385;-60
2022/01/15 03:51:03;;;;;;;;;75.00;62.00;;;;;4.74;72.34;102255.50;5055635;28;45195;-62
2022/01/15 03:53:29;;;;;;;;;111.00;95.67;;;;;4.69;72.67;102244.13;5038005;28;45575;-57
2022/01/15 03:55:55;;;;;;;;;101.33;80.00;;;;;4.72;72.51;102249.38;5055477;28;46290;-59
2022/01/15 03:58:20;;;;;;;;;115.67;101.00;;;;;4.69;72.77;102247.63;5037268;28;45450;-62
2022/01/15 04:00:47;;;;;;;;;109.33;98.00;;;;;4.70;72.22;102243.22;5037656;28;45391;-63
2022/01/15 04:03:12;;;;;;;;;110.67;87.00;;;;;4.66;72.74;102234.44;5055008;28;45404;-62
2022/01/15 04:05:38;;;;;;;;;105.33;87.00;;;;;4.68;72.08;102235.31;5055516;28;45439;-64
2022/01/15 04:08:05;;;;;;;;;114.67;95.33;;;;;4.66;72.28;102225.66;5055208;28;45413;-61
2022/01/15 04:10:31;;;;;;;;;112.67;97.33;;;;;4.69;72.44;102229.19;5055284;28;45396;-65
2022/01/15 04:12:56;;;;;;;;;111.67;86.33;;;;;4.75;72.04;102220.34;5036811;28;45600;-58
2022/01/15 04:15:22;;;;;;;;;109.67;91.33;;;;;4.80;72.06;102225.56;5054078;28;46516;-63
2022/01/15 04:17:49;;;;;;;;;97.33;78.00;;;;;4.81;71.61;102216.78;5054570;28;45319;-64
2022/01/15 04:20:18;;;;;;;;;110.33;97.67;;;;;4.85;71.05;102218.53;5054727;28;45323;-60
2022/01/15 04:22:44;;;;;;;;;105.67;92.33;;;;;4.87;71.27;102209.72;5055515;28;45451;-60
2022/01/15 04:25:09;;;;;;;;;110.67;92.00;;;;;4.87;71.38;102208.84;5037246;28;45429;-60
2022/01/15 04:27:36;;;;;;;;;111.00;97.67;;;;;4.86;71.41;102207.97;5055075;28;45315;-60
2022/01/15 04:30:03;;;;;;;;;109.00;91.00;;;;;4.81;71.44;102219.41;5036934;28;45445;-63
2022/01/15 04:32:30;;;;;;;;;111.00;95.33;;;;;4.77;71.37;102208.03;5054831;28;45247;-60
2022/01/15 04:34:55;;;;;;;;;113.00;100.00;;;;;4.78;71.64;102208.91;5055106;28;45431;-62
2022/01/15 04:37:23;;;;;;;;;113.67;103.67;;;;;4.68;72.23;102193.13;5054978;28;45440;-59
2022/01/15 04:39:49;;;;;;;;;111.33;93.33;;;;;4.78;71.31;102204.50;5054602;28;45426;-66
2022/01/15 04:42:16;;;;;;;;;105.67;88.00;;;;;4.84;71.91;102195.69;5055301;28;45549;-63
2022/01/15 04:44:42;;;;;;;;;115.00;103.67;;;;;4.89;71.83;102196.53;5054461;28;47112;-65
2022/01/15 04:47:08;;;;;;;;;115.33;95.00;;;;;4.85;71.21;102194.81;5055177;28;45277;-66
2022/01/15 04:49:33;;;;;;;;;116.00;96.33;;;;;4.81;71.54;102200.97;5055312;28;45361;-63
2022/01/15 04:52:00;;;;;;;;;113.00;104.33;;;;;4.78;72.08;102191.31;5052544;28;45335;-69
2022/01/15 04:54:26;;;;;;;;;120.00;105.33;;;;;4.79;71.21;102195.72;5037821;28;45549;-63
2022/01/15 04:56:52;;;;;;;;;110.00;94.00;;;;;4.78;71.63;102195.72;5043498;28;45392;-63
2022/01/15 04:59:17;;;;;;;;;118.67;96.67;;;;;4.73;72.23;102196.63;5035919;28;45450;-64
2022/01/15 05:01:43;;;;;;;;;119.33;101.33;;;;;4.72;71.30;102197.53;5038583;28;45452;-67
2022/01/15 05:04:08;;;;;;;;;117.33;103.33;;;;;4.70;71.09;102188.75;5033581;28;46719;-61
2022/01/15 05:06:34;;;;;;;;;114.00;98.67;;;;;4.66;71.53;102188.75;5058314;28;45427;-63
2022/01/15 05:09:05;;;;;;;;;96.00;73.67;;;;;4.67;72.12;102191.38;5039664;28;45435;-60
2022/01/15 05:11:44;;;;;;;;;125.67;104.67;;;;;4.64;71.92;102191.41;5050473;28;45326;-66
2022/01/15 05:14:11;;;;;;;;;125.33;104.00;;;;;4.61;71.94;102194.06;5057199;28;47404;-60
2022/01/15 05:16:37;;;;;;;;;123.00;105.67;;;;;4.61;71.55;102188.81;5058058;28;45246;-62
2022/01/15 05:19:03;;;;;;;;;113.33;101.67;;;;;4.59;72.06;102185.31;5058403;28;45367;-65
2022/01/15 05:21:29;;;;;;;;;118.33;99.33;;;;;4.58;71.36;102180.94;5057633;28;45236;-66
2022/01/15 05:23:54;;;;;;;;;113.67;95.67;;;;;4.58;71.40;102183.56;5057460;28;46010;-67
2022/01/15 05:26:19;;;;;;;;;122.00;102.67;;;;;4.55;71.68;102174.78;5057527;28;45390;-63
2022/01/15 05:28:45;;;;;;;;;122.33;110.00;;;;;4.54;71.63;102187.06;5057930;28;45445;-61
2022/01/15 05:31:10;;;;;;;;;113.67;95.67;;;;;4.55;71.70;102183.56;5057339;28;45653;-60
2022/01/15 05:33:36;;;;;;;;;126.33;106.33;;;;;4.53;71.73;102182.69;5057734;28;46113;-62
2022/01/15 05:36:01;;;;;;;;;122.00;106.33;;;;;4.50;71.48;102181.84;5057619;28;45468;-66
2022/01/15 05:38:27;;;;;;;;;109.00;93.33;;;;;4.50;71.39;102187.13;5038946;28;45327;-65
2022/01/15 05:40:52;;;;;;;;;118.00;94.67;;;;;4.47;71.53;102184.50;5057860;28;45486;-62
2022/01/15 05:43:18;;;;;;;;;119.00;109.00;;;;;4.46;72.00;102188.03;5057592;28;45407;-63
2022/01/15 05:45:45;;;;;;;;;115.33;99.33;;;;;4.48;71.65;102187.13;5056709;28;45331;-66
2022/01/15 05:48:10;;;;;;;;;119.00;103.00;;;;;4.34;71.36;102162.63;5039416;28;45479;-63
2022/01/15 05:50:36;;;;;;;;;110.00;96.00;;;;;4.47;71.42;102198.56;5057574;28;45489;-66
2022/01/15 05:53:01;;;;;;;;;127.33;100.33;;;;;4.46;71.43;102202.06;5057009;28;46054;-67
2022/01/15 05:55:26;;;;;;;;;116.33;105.33;;;;;4.44;71.54;102206.47;5022263;28;45288;-58
2022/01/15 05:57:52;;;;;;;;;118.33;105.67;;;;;4.42;72.10;102200.31;5037333;28;45542;-61
2022/01/15 06:00:17;;;;;;;;;127.33;111.33;;;;;4.41;72.01;102201.19;5026499;28;45277;-59
2022/01/15 06:02:43;;;;;;;;;120.67;103.00;;;;;4.43;71.69;102202.09;5056297;28;45294;-61
2022/01/15 06:05:09;;;;;;;;;117.33;102.00;;;;;4.42;71.56;102205.56;5057375;28;45696;-62
2022/01/15 06:07:34;;;;;;;;;114.00;96.67;;;;;4.23;72.21;102203.94;5057182;28;45273;-59
2022/01/15 06:10:00;;;;;;;;;113.67;95.67;;;;;4.10;72.54;102200.47;5057470;28;45420;-62
2022/01/15 06:12:31;;;;;;;;;114.33;99.67;;;;;4.14;73.05;102196.94;5056883;28;45836;-62
2022/01/15 06:14:57;;;;;;;;;113.33;97.67;;;;;4.15;72.51;102202.19;5056967;28;45180;-60
2022/01/15 06:17:23;;;;;;;;;111.67;95.00;;;;;4.13;72.23;102198.69;5056431;28;45517;-60
2022/01/15 06:19:48;;;;;;;;;114.00;94.67;;;;;4.11;73.02;102199.59;5057292;28;45161;-62
2022/01/15 06:22:13;;;;;;;;;112.33;93.67;;;;;4.10;72.60;102203.97;5055523;28;46280;-63
2022/01/15 06:24:39;;;;;;;;;112.00;91.67;;;;;4.04;72.74;102188.22;5056672;28;45411;-61
2022/01/15 06:27:04;;;;;;;;;110.00;90.33;;;;;4.10;72.68;102193.44;5038373;28;45260;-60
2022/01/15 06:29:30;;;;;;;;;109.00;89.00;;;;;4.10;72.30;102190.81;5057314;28;45616;-64
2022/01/15 06:31:55;;;;;;;;;110.33;91.00;;;;;4.10;72.57;102182.91;5056243;28;46539;-62
2022/01/15 06:34:21;;;;;;;;;110.00;87.67;;;;;4.11;71.69;102192.56;5038161;28;45518;-66
2022/01/15 06:36:47;;;;;;;;;112.33;89.33;;;;;4.07;72.26;102185.56;5056061;28;46852;-65
2022/01/15 06:39:12;;;;;;;;;108.33;87.00;;;;;4.07;72.35;102188.19;5057169;28;45523;-62
2022/01/15 06:41:38;;;;;;;;;105.00;88.00;;;;;4.02;72.35;102179.41;5035723;28;46136;-63
2022/01/15 06:44:03;;;;;;;;;107.67;81.00;;;;;3.96;72.71;102189.97;5055918;28;45516;-66
2022/01/15 06:46:29;;;;;;;;;107.67;88.00;;;;;3.92;72.77;102188.25;5055642;28;45299;-67
2022/01/15 06:48:54;;;;;;;;;115.00;95.33;;;;;3.94;72.96;102186.50;5056079;28;45611;-61
2022/01/15 06:51:20;;;;;;;;;111.67;91.33;;;;;3.94;72.84;102173.31;5037921;28;45785;-64
2022/01/15 06:53:45;;;;;;;;;118.33;104.33;;;;;3.97;73.30;102189.09;5037701;28;45537;-65
2022/01/15 06:56:10;;;;;;;;;119.33;96.33;;;;;3.94;72.92;102183.84;5056926;28;45367;-64
2022/01/15 06:58:36;;;;;;;;;107.33;85.67;;;;;3.96;72.62;102174.19;5037932;28;45325;-61
2022/01/15 07:01:02;;;;;;;;;109.00;90.67;;;;;3.93;72.91;102163.69;5056202;28;46202;-67
2022/01/15 07:03:27;;;;;;;;;106.00;83.67;;;;;3.97;72.52;102175.94;5038199;28;45327;-64
2022/01/15 07:05:52;;;;;;;;;107.00;84.33;;;;;4.02;72.11;102163.63;5056165;28;45332;-66
2022/01/15 07:08:18;;;;;;;;;104.67;79.67;;;;;4.01;72.60;102163.63;5055613;28;45419;-66
2022/01/15 07:10:43;;;;;;;;;57.33;48.67;;;;;4.02;73.07;102163.63;5055981;28;46155;-62
2022/01/15 07:13:09;;;;;;;;;113.33;94.00;;;;;3.95;72.87;102146.13;5054961;28;45364;-63
2022/01/15 07:15:35;;;;;;;;;112.67;92.00;;;;;3.99;73.07;102157.50;5055052;28;45510;-62
2022/01/15 07:18:01;;;;;;;;;107.33;89.67;;;;;3.96;73.36;102153.13;5056592;28;45366;-59
2022/01/15 07:20:27;;;;;;;;;108.67;86.33;;;;;3.95;73.23;102146.13;5055760;28;45753;-63
2022/01/15 07:22:53;;;;;;;;;110.67;94.00;;;;;3.98;73.16;102156.63;5056264;28;45347;-60
2022/01/15 07:25:18;;;;;;;;;110.67;86.00;;;;;3.96;73.31;102158.41;5056381;28;45318;-60
2022/01/15 07:27:44;;;;;;;;;107.67;91.33;;;;;4.01;72.98;102161.00;5056472;28;45519;-64
2022/01/15 07:30:12;;;;;;;;;113.67;87.67;;;;;4.00;72.76;102161.88;5056174;28;45443;-66
2022/01/15 07:32:40;;;;;;;;;110.67;93.33;;;;;4.00;72.81;102160.13;5036645;28;45545;-64
2022/01/15 07:35:07;;;;;;;;;110.67;91.67;;;;;4.03;72.72;102157.47;5038316;28;45325;-66
2022/01/15 07:37:34;;;;;;;;;106.33;90.00;;;;;4.02;72.67;102158.34;5037964;28;45354;-67
2022/01/15 07:39:59;;;;;;;;;117.33;96.33;;;;;4.05;72.78;102153.09;5055777;28;45785;-68
2022/01/15 07:42:25;;;;;;;;;110.33;92.67;;;;;4.06;72.73;102154.84;5054995;28;45601;-66
2022/01/15 07:44:51;;;;;;;;;110.67;95.67;;;;;4.08;72.56;102149.59;5055629;28;45340;-65
2022/01/15 07:47:17;;;;;;;;;110.00;95.33;;;;;4.07;72.46;102150.47;5047554;28;45499;-65
2022/01/15 07:49:42;;;;;;;;;106.67;89.33;;;;;4.09;72.52;102154.84;5050206;28;46009;-66
2022/01/15 07:52:08;;;;;;;;;104.67;88.67;;;;;4.05;72.15;102142.56;5054793;28;45412;-65
2022/01/15 07:54:33;;;;;;;;;106.67;89.33;;;;;4.10;72.66;102148.69;5037606;28;45369;-66
2022/01/15 07:56:59;;;;;;;;;116.00;98.00;;;;;4.06;72.55;102148.72;5055031;28;45556;-64
2022/01/15 07:59:25;;;;;;;;;121.00;101.00;;;;;4.09;72.27;102152.19;5039661;28;45947;-61
2022/01/15 08:01:51;;;;;;;;;113.67;93.33;;;;;4.10;72.92;102153.06;5019315;28;45661;-66
2022/01/15 08:04:17;;;;;;;;;109.67;91.33;;;;;4.08;72.16;102145.19;5054509;28;45341;-63
2022/01/15 08:06:42;;;;;;;;;105.33;84.33;;;;;4.09;72.10;102154.84;5055863;28;45327;-64
2022/01/15 08:09:09;;;;;;;;;110.67;83.33;;;;;4.09;72.21;102144.31;5055361;28;46339;-73
2022/01/15 08:11:35;;;;;;;;;108.67;90.67;;;;;4.08;72.54;102137.28;5043995;28;45349;-64
2022/01/15 08:14:00;;;;;;;;;111.33;93.33;;;;;4.14;72.40;102136.38;5031084;28;45553;-64
2022/01/15 08:16:26;;;;;;;;;112.67;95.33;;;;;4.15;72.70;102141.63;5054318;28;45580;-62
2022/01/15 08:18:51;;;;;;;;;109.00;91.00;;;;;4.15;72.54;102143.38;5054137;28;45877;-61
2022/01/15 08:21:17;;;;;;;;;113.33;99.67;;;;;4.19;72.14;102134.59;5035395;28;45394;-59
2022/01/15 08:23:42;;;;;;;;;123.00;103.00;;;;;4.22;71.90;102131.09;5054998;28;45378;-65
2022/01/15 08:26:08;;;;;;;;;110.67;91.33;;;;;4.22;72.31;102128.44;5057130;28;45209;-66
2022/01/15 08:28:34;;;;;;;;;113.67;85.00;;;;;4.29;71.91;102140.69;5057235;28;45342;-67
2022/01/15 08:30:59;;;;;;;;;112.67;93.00;;;;;4.27;71.85;102129.28;5057197;28;45308;-66
2022/01/15 08:33:25;;;;;;;;;110.67;95.00;;;;;4.31;71.85;102139.81;5056066;28;45353;-63
2022/01/15 08:35:51;;;;;;;;;111.67;88.33;;;;;4.28;72.04;102125.75;5058249;28;45600;-63
2022/01/15 08:38:16;;;;;;;;;113.00;95.00;;;;;4.34;72.08;102138.91;5056880;28;45926;-60
2022/01/15 08:40:42;;;;;;;;;107.00;92.00;;;;;4.37;72.59;102138.88;5058461;28;45390;-61
2022/01/15 08:43:08;;;;;;;;;109.33;93.33;;;;;4.34;72.06;102133.66;5058566;28;45450;-61
2022/01/15 08:45:35;;;;;;;;;111.33;94.67;;;;;4.37;72.07;102133.63;5040713;28;45522;-63
2022/01/15 08:48:00;;;;;;;;;112.33;91.00;;;;;4.40;71.88;102136.22;5040361;28;46287;-61
2022/01/15 08:50:26;;;;;;;;;114.00;93.67;;;;;4.37;71.46;102128.34;5057092;28;45328;-65
2022/01/15 08:52:51;;;;;;;;;115.67;101.33;;;;;4.44;71.55;102135.34;5058022;28;45270;-58
2022/01/15 08:55:20;;;;;;;;;113.67;94.33;;;;;4.53;70.95;102143.16;5059265;28;45588;-60
2022/01/15 08:57:46;;;;;;;;;112.67;95.33;;;;;4.49;71.58;102152.00;5057297;28;46218;-63
2022/01/15 09:00:15;;;;;;;;;68.33;50.67;;;;;4.49;71.05;102146.72;5058115;28;45476;-61
2022/01/15 09:02:40;;;;;;;;;115.00;101.33;;;;;4.60;71.60;102162.47;5050775;28;45541;-66
2022/01/15 09:05:06;;;;;;;;;90.00;65.67;;;;;4.62;71.19;102161.56;5044992;28;45462;-65
2022/01/15 09:07:32;;;;;;;;;116.67;95.00;;;;;4.67;70.91;102158.88;5053871;28;45419;-66
2022/01/15 09:09:57;;;;;;;;;115.33;100.33;;;;;4.70;70.77;102159.78;5038696;28;45480;-59
2022/01/15 09:12:23;;;;;;;;;106.00;84.00;;;;;4.76;70.37;102148.28;5057240;28;45520;-61
2022/01/15 09:14:52;;;;;;;;;109.00;92.33;;;;;4.86;70.17;102157.03;5058215;28;45426;-58
2022/01/15 09:17:17;;;;;;;;;116.33;98.33;;;;;4.92;70.27;102152.56;5037759;28;45469;-63
2022/01/15 09:19:43;;;;;;;;;108.00;88.00;;;;;5.02;69.80;102161.28;5050886;28;45537;-64
2022/01/15 09:22:11;;;;;;;;;114.33;94.33;;;;;5.01;69.71;102157.78;5039794;28;45456;-59
2022/01/15 09:24:37;;;;;;;;;107.00;90.67;;;;;4.99;69.35;102150.75;5034720;28;45370;-63
2022/01/15 09:30:12;;;;;;;;;88.00;68.33;;;;;4.97;70.02;102152.53;5037782;28;45283;-63
2022/01/15 09:32:32;;;;;;;;;107.33;88.33;;;;;4.98;70.10;102143.75;5057654;28;45245;-65
2022/01/15 09:34:58;;;;;;;;;108.00;88.67;;;;;5.05;69.22;102155.97;5056819;28;45456;-61
2022/01/15 09:37:24;;;;;;;;;111.00;94.67;;;;;5.11;69.38;102152.44;5057131;28;46082;-63
2022/01/15 09:39:50;;;;;;;;;107.67;88.33;;;;;5.17;69.21;102153.22;5039104;28;45374;-59
2022/01/15 09:42:17;;;;;;;;;109.00;96.00;;;;;5.28;68.63;102155.78;5058116;28;45380;-61
2022/01/15 09:44:45;;;;;;;;;109.67;93.00;;;;;5.25;68.76;102143.50;5038969;28;45493;-62
2022/01/15 09:47:11;;;;;;;;;113.00;92.33;;;;;5.28;68.93;102146.09;5039846;28;45410;-61
2022/01/15 09:49:40;;;;;;;;;109.00;92.33;;;;;5.32;68.58;102153.09;5057089;28;45244;-63
2022/01/15 09:52:05;;;;;;;;;109.00;96.33;;;;;5.36;68.87;102146.03;5056623;28;45299;-61
2022/01/15 09:54:31;;;;;;;;;106.00;84.00;;;;;5.32;68.49;102153.09;5057253;28;45503;-63
2022/01/15 09:56:57;;;;;;;;;109.33;99.00;;;;;5.36;69.28;102142.53;5056404;28;45514;-63
2022/01/15 09:59:22;;;;;;;;;120.67;100.67;;;;;5.48;69.17;102145.03;5054001;28;45554;-63
2022/01/15 10:01:48;;;;;;;;;111.67;100.67;;;;;5.55;68.70;102136.16;5054752;28;45437;-61
2022/01/15 10:04:14;;;;;;;;;124.33;105.67;;;;;5.62;68.56;102128.16;5052217;28;45468;-62
2022/01/15 10:07:06;;;;;;;;;133.00;115.67;;;;;5.76;68.00;102135.06;5032473;28;46287;-62
2022/01/15 10:09:32;;;;;;;;;115.33;103.00;;;;;5.78;67.72;102125.34;5055353;28;45535;-63
2022/01/15 10:11:58;;;;;;;;;122.67;97.67;;;;;5.95;67.36;102130.44;5026810;28;45552;-63
2022/01/15 10:14:24;;;;;;;;;121.00;102.33;;;;;6.03;68.10;102136.53;5046865;28;45907;-64
2022/01/15 10:16:49;;;;;;;;;113.67;103.67;;;;;6.06;67.24;102141.75;5038644;28;47134;-63
2022/01/15 10:19:44;;;;;;;;;106.00;95.67;;;;;6.20;67.28;102145.09;5055500;28;45488;-62
2022/01/15 10:22:18;;;;;;;;;110.67;102.33;;;;;6.30;66.63;102141.44;5042564;28;45499;-60
2022/01/15 10:24:57;;;;;;;;;111.33;104.00;;;;;6.36;66.43;102138.69;5055829;28;45564;-63
2022/01/15 10:27:29;;;;;;;;;118.00;100.33;;;;;6.46;65.90;102135.03;5037627;28;47515;-60
2022/01/15 10:30:03;;;;;;;;;106.00;91.00;;;;;6.58;65.93;102144.56;5038083;28;45438;-63
2022/01/15 10:32:32;;;;;;;;;106.00;86.33;;;;;6.62;66.24;102135.69;5037791;28;45462;-63
2022/01/15 10:34:58;;;;;;;;;113.33;99.33;;;;;6.68;64.95;102130.31;5056586;28;45359;-63
2022/01/15 10:37:37;;;;;;;;;124.00;103.33;;;;;6.69;65.70;102115.31;5037493;28;46243;-62
2022/01/15 10:40:08;;;;;;;;;118.67;101.33;;;;;6.80;64.86;102119.56;5035900;28;45522;-62
2022/01/15 10:42:35;;;;;;;;;107.00;96.33;;;;;6.82;64.50;102108.94;5047038;28;45458;-63
2022/01/15 10:45:11;;;;;;;;;119.00;96.67;;;;;6.83;64.88;102112.47;5056171;28;45427;-63
2022/01/15 10:47:43;;;;;;;;;111.00;97.67;;;;;6.90;64.37;102104.41;5038282;28;46190;-63
2022/01/15 10:50:17;;;;;;;;;107.67;95.00;;;;;7.02;64.41;102104.19;5054963;28;45166;-64
2022/01/15 10:52:43;;;;;;;;;111.67;97.33;;;;;7.07;63.85;102104.13;5055868;28;45447;-61
2022/01/15 10:55:09;;;;;;;;;131.33;107.33;;;;;7.14;63.95;102097.78;5056572;28;45383;-65
2022/01/15 10:57:38;;;;;;;;;107.00;94.67;;;;;7.19;63.84;102095.97;5055714;28;45344;-64
2022/01/15 11:00:12;;;;;;;;;123.67;108.67;;;;;7.30;63.45;102098.41;5037682;28;45450;-63
2022/01/15 11:02:40;;;;;;;;;125.00;107.00;;;;;7.38;62.89;102093.84;5055560;28;45508;-64
2022/01/15 11:05:28;;;;;;;;;107.00;98.33;;;;;7.47;62.60;102093.66;5056222;28;45386;-65
2022/01/15 11:08:03;;;;;;;;;116.00;110.00;;;;;7.54;62.45;102083.81;5046777;28;46250;-63
2022/01/15 11:10:36;;;;;;;;;136.67;116.00;;;;;7.60;62.35;102089.88;5057879;28;45352;-64
2022/01/15 11:13:06;;;;;;;;;109.00;106.00;;;;;7.66;62.17;102080.94;5061874;28;45443;-64
2022/01/15 11:15:32;;;;;;;;;107.00;86.67;;;;;7.77;61.84;102094.81;5055003;28;45224;-63
2022/01/15 11:17:58;;;;;;;;;133.67;121.00;;;;;7.84;61.37;102083.22;5054334;28;46235;-70
2022/01/15 11:20:30;;;;;;;;;128.33;111.33;;;;;7.91;60.87;102081.28;5055147;28;45524;-68
2022/01/15 11:22:56;;;;;;;;;124.67;109.67;;;;;7.95;60.64;102088.28;5067989;28;45444;-68
2022/01/15 11:25:22;;;;;;;;;134.00;117.00;;;;;7.92;60.86;102075.97;5052617;28;45458;-67